Time;durP1;ratioP1;P1;durP2;ratioP2;P2;SDS_P1;SDS_P2;PMS_P1;PMS_P2;Temp;Humidity;BMP_temperature;BMP_pressure;BME280_temperature;BME280_humidity;BME280_pressure;Samples;Min_cycle;Max_cycle;Signal;HPM_P1;HPM_P2
2022/11/02 00:00:21;;;;;;;8.13;1.50;;;12.50;99.90;;;;;;7371519;19;20054;-58
2022/11/02 00:02:47;;;;;;;7.03;2.42;;;12.40;99.90;;;;;;7370860;19;20030;-57
2022/11/02 00:05:14;;;;;;;6.35;2.30;;;12.40;99.90;;;;;;7371377;19;20014;-57
2022/11/02 00:07:41;;;;;;;7.75;1.55;;;12.40;99.90;;;;;;7369339;19;20023;-61
2022/11/02 00:10:10;;;;;;;4.53;1.35;;;12.40;99.90;;;;;;7370012;19;20331;-61
2022/11/02 00:12:36;;;;;;;7.93;1.90;;;12.40;99.90;;;;;;7370293;19;20050;-58
2022/11/02 00:15:03;;;;;;;5.65;1.73;;;12.40;99.90;;;;;;7370624;19;20035;-57
2022/11/02 00:17:29;;;;;;;5.55;1.35;;;12.40;99.90;;;;;;7367215;19;20018;-57
2022/11/02 00:19:57;;;;;;;8.20;1.50;;;12.30;99.90;;;;;;7371069;19;20523;-61
2022/11/02 00:22:24;;;;;;;10.15;1.67;;;12.30;99.90;;;;;;7365618;19;20623;-60
2022/11/02 00:24:50;;;;;;;9.50;1.77;;;12.30;99.90;;;;;;7365645;19;20434;-58
2022/11/02 00:27:16;;;;;;;7.68;1.33;;;12.30;99.90;;;;;;7369678;19;20434;-60
2022/11/02 00:29:43;;;;;;;5.63;1.30;;;12.30;99.90;;;;;;7367727;19;20390;-60
2022/11/02 00:32:09;;;;;;;9.68;1.88;;;12.30;99.90;;;;;;7370433;19;20026;-60
2022/11/02 00:34:35;;;;;;;6.90;1.38;;;12.20;99.90;;;;;;7370079;19;20111;-61
2022/11/02 00:37:02;;;;;;;9.98;2.08;;;12.20;99.90;;;;;;7369984;19;20129;-61
2022/11/02 00:39:28;;;;;;;5.68;1.52;;;12.20;99.90;;;;;;7368838;19;20537;-61
2022/11/02 00:41:54;;;;;;;7.03;1.70;;;12.20;99.90;;;;;;7372740;19;20412;-60
2022/11/02 00:44:20;;;;;;;7.30;1.60;;;12.20;99.90;;;;;;7361843;19;20023;-61
2022/11/02 00:46:46;;;;;;;7.47;1.48;;;12.20;99.90;;;;;;7356049;19;20022;-61
2022/11/02 00:49:13;;;;;;;6.15;1.45;;;12.20;99.90;;;;;;7354662;19;20030;-60
2022/11/02 00:51:39;;;;;;;9.38;1.85;;;12.20;99.90;;;;;;7355633;19;20045;-59
2022/11/02 00:54:05;;;;;;;9.57;1.83;;;12.10;99.90;;;;;;7354666;19;20364;-59
2022/11/02 00:56:33;;;;;;;8.93;1.52;;;12.00;99.90;;;;;;7354448;19;20018;-59
2022/11/02 00:59:02;;;;;;;8.07;1.70;;;11.90;99.90;;;;;;7355651;19;21495;-59
2022/11/02 01:01:28;;;;;;;10.15;1.83;;;11.90;99.90;;;;;;7352311;19;20688;-59
2022/11/02 01:03:58;;;;;;;10.10;2.00;;;11.80;99.90;;;;;;7353757;19;20014;-60
2022/11/02 01:06:24;;;;;;;8.80;2.35;;;11.80;99.90;;;;;;7356230;19;20370;-59
2022/11/02 01:08:50;;;;;;;11.27;2.00;;;11.80;99.90;;;;;;7353922;19;20600;-59
2022/11/02 01:11:19;;;;;;;12.13;2.50;;;11.70;99.90;;;;;;7350803;19;20006;-59
2022/11/02 01:13:46;;;;;;;8.27;1.98;;;11.70;99.90;;;;;;7357055;19;20103;-59
2022/11/02 01:16:13;;;;;;;6.25;2.38;;;11.70;99.90;;;;;;7355659;19;20042;-59
2022/11/02 01:18:40;;;;;;;6.38;1.83;;;11.80;99.90;;;;;;7356992;19;20019;-60
2022/11/02 01:21:08;;;;;;;10.43;3.03;;;11.80;99.90;;;;;;7355644;19;20548;-60
2022/11/02 01:23:35;;;;;;;7.50;2.15;;;11.70;99.90;;;;;;7354131;19;20438;-60
2022/11/02 01:26:04;;;;;;;10.75;2.33;;;11.70;99.90;;;;;;7357275;19;20398;-60
2022/11/02 01:28:31;;;;;;;14.48;2.60;;;11.70;99.90;;;;;;7352894;19;20588;-60
2022/11/02 01:30:58;;;;;;;8.05;1.90;;;11.70;99.90;;;;;;7351356;19;21043;-60
2022/11/02 01:33:25;;;;;;;9.20;2.38;;;11.70;99.90;;;;;;7360578;19;20022;-61
2022/11/02 01:35:53;;;;;;;6.78;2.55;;;11.70;99.90;;;;;;7356425;19;20466;-60
2022/11/02 01:38:22;;;;;;;10.00;2.55;;;11.80;99.90;;;;;;7355463;19;20023;-60
2022/11/02 01:40:48;;;;;;;14.35;3.67;;;11.80;99.90;;;;;;7352310;19;20398;-59
2022/11/02 01:43:21;;;;;;;8.70;2.30;;;11.80;99.90;;;;;;7356976;19;20034;-61
2022/11/02 01:45:58;;;;;;;10.98;3.35;;;11.80;99.90;;;;;;7352864;19;20367;-60
2022/11/02 01:48:38;;;;;;;13.93;2.50;;;11.80;99.90;;;;;;7355226;19;20431;-59
2022/11/02 01:51:37;;;;;;;9.85;2.20;;;11.90;99.90;;;;;;7352365;19;20014;-59
2022/11/02 01:54:17;;;;;;;8.90;2.40;;;11.90;99.90;;;;;;7350469;19;20014;-56
2022/11/02 01:56:51;;;;;;;8.70;3.15;;;11.80;99.90;;;;;;7355053;19;20018;-59
2022/11/02 01:59:25;;;;;;;11.10;2.38;;;11.80;99.90;;;;;;7354861;19;20018;-59
2022/11/02 02:01:53;;;;;;;12.68;2.30;;;11.80;99.90;;;;;;7356741;19;20489;-59
2022/11/02 02:04:20;;;;;;;8.25;1.95;;;11.70;99.90;;;;;;7351614;19;20022;-60
2022/11/02 02:06:48;;;;;;;7.18;2.92;;;11.80;99.90;;;;;;7352688;19;20019;-60
2022/11/02 02:09:15;;;;;;;9.63;2.53;;;11.70;99.90;;;;;;7354620;19;21164;-60
2022/11/02 02:11:41;;;;;;;10.57;2.22;;;11.80;99.90;;;;;;7349149;19;20018;-57
2022/11/02 02:14:12;;;;;;;10.13;3.03;;;11.90;99.90;;;;;;7368328;19;20025;-60
2022/11/02 02:17:23;;;;;;;7.63;2.35;;;11.90;99.90;;;;;;7370691;19;20033;-60
2022/11/02 02:19:49;;;;;;;13.45;2.50;;;12.00;99.90;;;;;;7369219;19;20504;-60
2022/11/02 02:22:35;;;;;;;9.00;2.10;;;12.10;99.90;;;;;;7370571;19;20119;-61
2022/11/02 02:25:22;;;;;;;11.25;2.78;;;12.10;99.90;;;;;;7373445;19;20019;-60
2022/11/02 02:28:10;;;;;;;11.75;2.50;;;12.20;99.90;;;;;;7369512;19;20397;-60
2022/11/02 02:30:42;;;;;;;15.50;2.60;;;12.20;99.90;;;;;;7364447;19;20020;-59
2022/11/02 02:33:13;;;;;;;7.78;1.90;;;12.00;99.90;;;;;;7370762;19;20029;-60
2022/11/02 02:35:45;;;;;;;5.30;1.67;;;11.80;99.90;;;;;;7368945;19;20030;-62
2022/11/02 02:38:23;;;;;;;4.32;1.55;;;11.60;99.90;;;;;;7369787;19;20022;-62
2022/11/02 02:40:56;;;;;;;7.40;2.08;;;11.50;99.90;;;;;;7372835;19;20026;-63
2022/11/02 02:43:36;;;;;;;5.65;1.50;;;11.40;99.90;;;;;;7379337;19;20031;-62
2022/11/02 02:46:14;;;;;;;6.38;1.25;;;11.40;99.90;;;;;;7376338;19;20019;-62
2022/11/02 02:48:45;;;;;;;6.93;2.20;;;11.50;99.90;;;;;;7379663;19;20472;-62
2022/11/02 02:51:31;;;;;;;6.80;2.20;;;11.40;99.90;;;;;;7376753;19;20014;-64
2022/11/02 02:54:22;;;;;;;6.25;1.45;;;11.40;99.90;;;;;;7379755;19;20015;-63
2022/11/02 02:56:53;;;;;;;3.77;1.60;;;11.40;99.90;;;;;;7374545;19;20025;-62
2022/11/02 02:59:40;;;;;;;6.73;1.70;;;11.50;99.90;;;;;;7377216;19;20293;-55
2022/11/02 03:02:31;;;;;;;5.75;1.90;;;11.50;99.90;;;;;;7376034;19;20078;-64
2022/11/02 03:04:57;;;;;;;7.20;1.77;;;11.50;99.90;;;;;;7377983;19;20501;-57
2022/11/02 03:07:26;;;;;;;6.03;1.50;;;11.40;99.90;;;;;;7377660;19;20022;-64
2022/11/02 03:10:19;;;;;;;5.50;1.63;;;11.50;99.90;;;;;;7377090;19;20042;-63
2022/11/02 03:12:59;;;;;;;6.25;1.70;;;11.40;99.90;;;;;;7374911;19;20592;-57
2022/11/02 03:15:51;;;;;;;8.90;1.50;;;11.40;99.90;;;;;;7376923;19;20014;-54
2022/11/02 03:18:42;;;;;;;10.18;1.60;;;11.30;99.90;;;;;;7379556;19;20432;-54
2022/11/02 03:21:32;;;;;;;6.32;1.08;;;11.30;99.90;;;;;;7375050;19;20446;-54
2022/11/02 03:24:19;;;;;;;7.32;1.42;;;11.30;99.90;;;;;;7374837;19;20355;-54
2022/11/02 03:27:12;;;;;;;5.88;1.95;;;11.30;99.90;;;;;;7376106;19;20588;-54
2022/11/02 03:29:51;;;;;;;3.63;1.15;;;11.20;99.90;;;;;;7374172;19;20474;-56
2022/11/02 03:32:37;;;;;;;6.55;1.20;;;11.20;99.90;;;;;;7379305;19;20045;-55
2022/11/02 03:35:11;;;;;;;5.93;0.93;;;11.10;99.90;;;;;;7376854;19;20019;-61
2022/11/02 03:37:44;;;;;;;8.38;1.23;;;11.00;99.90;;;;;;7372892;19;20509;-61
2022/11/02 03:40:23;;;;;;;7.40;1.30;;;11.00;99.90;;;;;;7373942;19;20108;-61
2022/11/02 03:42:52;;;;;;;4.95;1.10;;;11.00;99.90;;;;;;7374771;19;20733;-62
2022/11/02 03:45:22;;;;;;;5.05;1.17;;;11.00;99.90;;;;;;7373812;19;20094;-62
2022/11/02 03:47:59;;;;;;;6.32;1.20;;;11.10;99.90;;;;;;7372248;19;20026;-62
2022/11/02 03:50:26;;;;;;;6.50;1.33;;;11.00;99.90;;;;;;7372254;19;20132;-62
2022/11/02 03:53:04;;;;;;;6.47;1.10;;;11.00;99.90;;;;;;7373569;19;20029;-62
2022/11/02 03:55:43;;;;;;;6.88;1.00;;;11.00;99.90;;;;;;7375712;19;20023;-62
2022/11/02 03:58:11;;;;;;;6.30;1.02;;;10.90;99.90;;;;;;7375287;19;20501;-62
2022/11/02 04:00:49;;;;;;;5.03;2.10;;;11.00;99.90;;;;;;7373921;19;20018;-62
2022/11/02 04:03:16;;;;;;;7.18;1.63;;;10.90;99.90;;;;;;7374359;19;20026;-62
2022/11/02 04:05:47;;;;;;;5.18;1.35;;;10.80;99.90;;;;;;7374398;19;20474;-62
2022/11/02 04:08:25;;;;;;;8.20;1.17;;;10.90;99.90;;;;;;7375984;19;20015;-67
2022/11/02 04:16:29;;;;;;;4.40;0.95;;;10.80;99.90;;;;;;7370737;19;20537;-62
2022/11/02 04:25:14;;;;;;;7.05;1.45;;;10.90;99.90;;;;;;7371830;19;20391;-62
2022/11/02 04:27:19;;;;;;;4.88;1.35;;;10.80;99.90;;;;;;7371579;19;20030;-61
2022/11/02 04:29:45;;;;;;;5.68;1.45;;;10.90;99.90;;;;;;7368122;19;20018;-63
2022/11/02 04:32:11;;;;;;;9.88;1.70;;;10.90;99.90;;;;;;7373755;19;20611;-62
2022/11/02 04:34:38;;;;;;;5.20;1.50;;;11.00;99.90;;;;;;7375397;19;20094;-62
2022/11/02 04:38:39;;;;;;;5.35;1.65;;;11.10;99.90;;;;;;7372200;19;20480;-62
2022/11/02 04:39:51;;;;;;;6.10;1.58;;;11.20;99.90;;;;;;7376391;19;20497;-61
2022/11/02 04:42:17;;;;;;;10.07;1.88;;;11.10;99.90;;;;;;7375115;19;20383;-61
2022/11/02 04:44:55;;;;;;;5.85;1.27;;;11.10;99.90;;;;;;7376847;19;20420;-61
2022/11/02 04:47:23;;;;;;;10.23;1.83;;;11.20;99.90;;;;;;7373765;19;20018;-62
2022/11/02 04:49:49;;;;;;;4.63;1.52;;;11.10;99.90;;;;;;7374124;19;20368;-61
2022/11/02 04:52:18;;;;;;;7.97;1.73;;;11.10;99.90;;;;;;7369905;19;20046;-61
2022/11/02 04:54:48;;;;;;;9.88;1.90;;;11.20;99.90;;;;;;7370534;19;20094;-62
2022/11/02 04:57:14;;;;;;;8.68;1.95;;;11.20;99.90;;;;;;7373749;19;20390;-62
2022/11/02 04:59:42;;;;;;;7.88;1.92;;;11.20;99.90;;;;;;7373186;19;20042;-62
2022/11/02 05:02:08;;;;;;;8.75;2.00;;;11.20;99.90;;;;;;7373299;19;20033;-62
2022/11/02 05:04:35;;;;;;;7.95;1.52;;;11.20;99.90;;;;;;7369822;19;20018;-61
2022/11/02 05:07:05;;;;;;;6.80;1.45;;;11.20;99.90;;;;;;7372484;19;20373;-62
2022/11/02 05:09:33;;;;;;;6.55;1.58;;;11.30;99.90;;;;;;7371803;19;20818;-61
2022/11/02 05:12:00;;;;;;;11.32;1.75;;;11.20;99.90;;;;;;7372576;19;20351;-61
2022/11/02 05:14:27;;;;;;;6.25;1.42;;;11.30;99.90;;;;;;7366250;19;20022;-62
2022/11/02 05:16:53;;;;;;;9.43;1.83;;;11.30;99.90;;;;;;7370763;19;20363;-62
2022/11/02 05:19:19;;;;;;;12.68;2.20;;;11.30;99.90;;;;;;7372588;19;20025;-64
2022/11/02 05:21:46;;;;;;;7.28;1.63;;;11.40;99.90;;;;;;7367867;19;20585;-62
2022/11/02 05:24:13;;;;;;;11.23;2.53;;;11.30;99.90;;;;;;7374625;19;20554;-62
2022/11/02 05:26:40;;;;;;;8.02;1.33;;;11.30;99.90;;;;;;7369167;19;20078;-62
2022/11/02 05:29:08;;;;;;;10.75;2.00;;;11.40;99.90;;;;;;7371762;19;20825;-62
2022/11/02 05:31:35;;;;;;;8.57;2.17;;;11.20;99.90;;;;;;7371191;19;20047;-62
2022/11/02 05:34:01;;;;;;;5.75;1.90;;;11.20;99.90;;;;;;7371126;19;20033;-63
2022/11/02 05:36:28;;;;;;;9.95;2.13;;;11.20;99.90;;;;;;7372464;19;20018;-57
2022/11/02 05:38:55;;;;;;;7.13;2.53;;;11.20;99.90;;;;;;7370338;19;20022;-63
2022/11/02 05:41:22;;;;;;;6.95;1.67;;;11.20;99.90;;;;;;7373237;19;20470;-62
2022/11/02 05:43:50;;;;;;;7.68;2.40;;;11.20;99.90;;;;;;7370153;19;20026;-57
2022/11/02 05:46:17;;;;;;;9.80;2.03;;;11.10;99.90;;;;;;7367595;19;20025;-58
2022/11/02 05:48:46;;;;;;;10.88;2.72;;;11.10;99.90;;;;;;7370667;19;20498;-57
2022/11/02 05:51:13;;;;;;;9.35;2.38;;;11.00;99.90;;;;;;7371632;19;20038;-57
2022/11/02 05:53:39;;;;;;;7.60;2.20;;;11.00;99.90;;;;;;7373481;19;20014;-57
2022/11/02 05:56:08;;;;;;;13.63;2.30;;;10.90;99.90;;;;;;7372538;19;20022;-57
2022/11/02 05:58:35;;;;;;;9.13;1.75;;;10.90;99.90;;;;;;7371001;19;20019;-56
2022/11/02 06:01:04;;;;;;;10.23;2.83;;;11.00;99.90;;;;;;7367387;19;20035;-57
2022/11/02 06:03:30;;;;;;;14.35;2.67;;;10.90;99.90;;;;;;7370633;19;20022;-56
2022/11/02 06:06:03;;;;;;;12.50;2.65;;;10.90;99.90;;;;;;7371645;19;20018;-57
2022/11/02 06:08:33;;;;;;;10.23;2.08;;;10.90;99.90;;;;;;7370929;19;20066;-57
2022/11/02 06:11:05;;;;;;;9.35;2.22;;;10.80;99.90;;;;;;7369766;19;20023;-57
2022/11/02 06:13:31;;;;;;;13.37;2.80;;;10.80;99.90;;;;;;7371249;19;20022;-57
2022/11/02 06:15:59;;;;;;;12.85;2.83;;;10.80;99.90;;;;;;7373269;19;20056;-57
2022/11/02 06:18:25;;;;;;;9.88;2.50;;;10.80;99.90;;;;;;7379899;19;20454;-57
2022/11/02 06:20:52;;;;;;;12.35;2.67;;;10.80;99.90;;;;;;7377163;19;20022;-57
2022/11/02 06:23:18;;;;;;;12.25;2.83;;;10.70;99.90;;;;;;7372206;19;20014;-57
2022/11/02 06:25:57;;;;;;;7.05;2.10;;;10.70;99.90;;;;;;7377420;19;20030;-57
2022/11/02 06:28:24;;;;;;;10.15;2.92;;;10.70;99.90;;;;;;7378602;19;20031;-57
2022/11/02 06:30:51;;;;;;;13.68;2.78;;;10.80;99.90;;;;;;7373259;19;20019;-57
2022/11/02 06:33:18;;;;;;;8.93;2.65;;;10.70;99.90;;;;;;7377235;19;20042;-57
2022/11/02 06:35:53;;;;;;;15.27;3.60;;;10.70;99.90;;;;;;7372572;19;20029;-53
2022/11/02 06:38:20;;;;;;;8.68;2.78;;;10.70;99.90;;;;;;7376410;19;20052;-58
2022/11/02 06:40:57;;;;;;;11.48;2.80;;;10.70;99.90;;;;;;7375540;19;20014;-57
2022/11/02 06:43:24;;;;;;;11.63;2.53;;;10.70;99.90;;;;;;7374659;19;20015;-55
2022/11/02 06:45:53;;;;;;;10.18;2.63;;;10.70;99.90;;;;;;7369749;19;20015;-57
2022/11/02 06:48:20;;;;;;;8.80;2.95;;;10.80;99.90;;;;;;7369589;19;20499;-57
2022/11/02 06:50:46;;;;;;;10.90;2.67;;;10.80;99.90;;;;;;7368306;19;20590;-57
2022/11/02 06:53:13;;;;;;;8.18;2.13;;;10.80;99.90;;;;;;7372711;19;20038;-55
2022/11/02 06:55:39;;;;;;;22.65;3.55;;;10.80;99.90;;;;;;7371152;19;20018;-57
2022/11/02 06:58:06;;;;;;;7.78;2.97;;;10.90;99.90;;;;;;7373095;19;20014;-57
2022/11/02 07:00:32;;;;;;;11.32;2.70;;;11.00;99.90;;;;;;7376858;19;20032;-57
2022/11/02 07:03:04;;;;;;;13.45;2.85;;;11.00;99.90;;;;;;7378499;19;20332;-58
2022/11/02 07:05:31;;;;;;;12.90;3.10;;;10.90;99.90;;;;;;7374698;19;20045;-56
2022/11/02 07:07:58;;;;;;;13.23;2.40;;;11.00;99.90;;;;;;7369511;19;20014;-57
2022/11/02 07:10:26;;;;;;;9.63;2.47;;;11.00;99.90;;;;;;7371651;19;20026;-57
2022/11/02 07:12:56;;;;;;;11.38;3.33;;;11.00;99.90;;;;;;7366054;19;20025;-59
2022/11/02 07:15:25;;;;;;;14.10;3.20;;;11.10;99.90;;;;;;7366004;19;20014;-54
2022/11/02 07:17:52;;;;;;;14.73;3.17;;;11.20;99.90;;;;;;7362788;19;20006;-57
2022/11/02 07:20:20;;;;;;;9.23;2.70;;;11.20;99.90;;;;;;7365229;19;20018;-55
2022/11/02 07:22:58;;;;;;;9.50;2.50;;;11.00;99.90;;;;;;7364094;19;20043;-56
2022/11/02 07:25:26;;;;;;;12.90;2.80;;;11.00;99.90;;;;;;7358379;19;21217;-54
2022/11/02 07:27:53;;;;;;;13.40;2.90;;;11.00;99.90;;;;;;7361749;19;20022;-55
2022/11/02 07:30:21;;;;;;;15.07;3.17;;;10.90;99.90;;;;;;7365272;19;20070;-56
2022/11/02 07:32:48;;;;;;;10.02;2.63;;;10.80;99.90;;;;;;7365512;19;20103;-55
2022/11/02 07:35:17;;;;;;;11.95;2.70;;;10.80;99.90;;;;;;7361556;19;20444;-54
2022/11/02 07:37:53;;;;;;;12.57;2.25;;;10.80;99.90;;;;;;7358915;19;20499;-53
2022/11/02 07:40:20;;;;;;;14.65;3.58;;;10.70;99.90;;;;;;7365538;19;20039;-55
2022/11/02 07:42:47;;;;;;;13.95;3.28;;;10.70;99.90;;;;;;7366086;19;20014;-53
2022/11/02 07:45:16;;;;;;;12.45;2.50;;;10.70;99.90;;;;;;7361019;19;20025;-53
2022/11/02 07:47:44;;;;;;;9.20;2.22;;;10.60;99.90;;;;;;7360885;19;20465;-53
2022/11/02 07:50:13;;;;;;;14.20;2.90;;;10.70;99.90;;;;;;7356952;19;20018;-50
2022/11/02 07:52:53;;;;;;;13.07;2.55;;;10.70;99.90;;;;;;7362620;19;20011;-52
2022/11/02 07:55:22;;;;;;;10.82;2.92;;;10.60;99.90;;;;;;7362972;19;20616;-55
2022/11/02 07:57:57;;;;;;;9.80;2.08;;;10.70;99.90;;;;;;7361529;19;20367;-55
2022/11/02 08:00:26;;;;;;;15.73;4.57;;;10.70;99.90;;;;;;7357836;19;20023;-54
2022/11/02 08:02:56;;;;;;;7.38;2.15;;;10.70;99.90;;;;;;7363671;19;20790;-55
2022/11/02 08:05:24;;;;;;;13.20;2.30;;;10.90;99.90;;;;;;7362252;19;20724;-62
2022/11/02 08:07:57;;;;;;;5.75;2.25;;;10.90;99.90;;;;;;7366360;19;20011;-62
2022/11/02 08:10:25;;;;;;;15.48;3.20;;;10.90;99.90;;;;;;7358550;19;20019;-62
2022/11/02 08:12:52;;;;;;;12.13;2.88;;;11.00;99.90;;;;;;7358874;19;20027;-62
2022/11/02 08:15:19;;;;;;;10.32;2.50;;;11.00;99.90;;;;;;7360681;19;20453;-62
2022/11/02 08:17:45;;;;;;;13.90;2.72;;;11.00;99.90;;;;;;7362415;19;20050;-62
2022/11/02 08:20:13;;;;;;;14.15;2.00;;;11.00;99.90;;;;;;7358226;19;20054;-62
2022/11/02 08:22:40;;;;;;;12.30;1.92;;;11.10;99.90;;;;;;7365351;19;20014;-62
2022/11/02 08:25:07;;;;;;;11.30;2.25;;;11.10;99.90;;;;;;7360337;19;20019;-62
2022/11/02 08:27:34;;;;;;;10.88;2.13;;;11.20;99.90;;;;;;7364802;19;20043;-62
2022/11/02 08:30:00;;;;;;;11.20;2.22;;;11.30;99.90;;;;;;7357212;19;20370;-62
2022/11/02 08:32:27;;;;;;;10.52;2.00;;;11.40;99.90;;;;;;7364240;19;20485;-61
2022/11/02 08:34:54;;;;;;;11.85;2.05;;;11.50;99.90;;;;;;7359139;19;20026;-62
2022/11/02 08:37:21;;;;;;;15.55;2.38;;;11.70;99.90;;;;;;7363303;19;20369;-61
2022/11/02 08:39:47;;;;;;;7.40;1.40;;;11.70;99.90;;;;;;7357193;19;20014;-63
2022/11/02 08:42:13;;;;;;;12.07;2.40;;;11.90;99.90;;;;;;7361295;19;20018;-62
2022/11/02 08:44:41;;;;;;;10.43;2.25;;;12.60;99.90;;;;;;7357472;19;20574;-62
2022/11/02 08:47:07;;;;;;;9.23;1.55;;;13.20;99.90;;;;;;7363572;19;20324;-62
2022/11/02 08:49:34;;;;;;;5.63;1.23;;;13.90;99.90;;;;;;7359249;19;20038;-62
2022/11/02 08:52:00;;;;;;;5.88;1.23;;;14.50;99.90;;;;;;7358202;19;20238;-62
2022/11/02 08:54:27;;;;;;;8.93;3.08;;;14.70;99.90;;;;;;7356988;19;20416;-62
2022/11/02 08:56:53;;;;;;;4.93;1.25;;;15.00;99.90;;;;;;7359318;19;20046;-62
2022/11/02 08:59:20;;;;;;;7.13;1.15;;;15.30;99.90;;;;;;7358240;19;20015;-62
2022/11/02 09:01:46;;;;;;;6.60;1.42;;;15.50;99.90;;;;;;7359159;19;20504;-63
2022/11/02 09:04:13;;;;;;;5.53;1.80;;;15.70;99.90;;;;;;7359739;19;20022;-62
2022/11/02 09:06:39;;;;;;;7.32;1.80;;;15.90;99.90;;;;;;7358090;19;20086;-62
2022/11/02 09:09:06;;;;;;;5.15;1.23;;;16.10;99.90;;;;;;7356661;19;20022;-62
2022/11/02 09:11:33;;;;;;;5.28;1.08;;;16.20;99.90;;;;;;7356378;19;20433;-62
2022/11/02 09:13:59;;;;;;;4.80;1.10;;;15.80;99.90;;;;;;7359191;19;20834;-62
2022/11/02 09:16:26;;;;;;;6.07;1.00;;;15.70;99.90;;;;;;7356367;19;20015;-62
2022/11/02 09:18:52;;;;;;;6.03;1.20;;;15.30;99.90;;;;;;7357372;19;20795;-63
2022/11/02 09:21:19;;;;;;;5.47;1.45;;;15.10;99.90;;;;;;7360843;19;20018;-64
2022/11/02 09:23:47;;;;;;;8.90;1.20;;;15.20;99.90;;;;;;7355821;19;20462;-54
2022/11/02 09:26:14;;;;;;;5.35;1.30;;;15.70;99.90;;;;;;7356642;19;20070;-56
2022/11/02 09:28:41;;;;;;;5.93;1.20;;;15.90;99.90;;;;;;7358746;19;20642;-54
2022/11/02 09:31:08;;;;;;;7.95;1.75;;;16.20;99.90;;;;;;7359876;19;20469;-54
2022/11/02 09:33:36;;;;;;;6.43;1.80;;;16.70;99.90;;;;;;7357434;19;20388;-54
2022/11/02 09:36:04;;;;;;;3.80;1.23;;;16.50;99.90;;;;;;7359789;19;20010;-54
2022/11/02 09:38:31;;;;;;;5.80;1.65;;;16.20;99.90;;;;;;7359332;19;20023;-55
2022/11/02 09:40:58;;;;;;;7.80;1.45;;;16.50;99.90;;;;;;7354762;19;20022;-56
2022/11/02 09:43:48;;;;;;;8.43;1.40;;;16.80;99.90;;;;;;7355292;19;20018;-56
2022/11/02 09:46:33;;;;;;;11.77;2.03;;;16.80;99.90;;;;;;7358457;19;20026;-54
2022/11/02 09:49:04;;;;;;;6.95;1.65;;;16.60;99.90;;;;;;7355929;19;20030;-55
2022/11/02 09:51:45;;;;;;;5.97;1.33;;;16.60;99.90;;;;;;7356216;19;20011;-55
2022/11/02 09:54:28;;;;;;;8.38;1.67;;;16.70;99.90;;;;;;7356274;19;20018;-56
2022/11/02 09:57:00;;;;;;;8.18;1.75;;;16.70;99.90;;;;;;7357251;19;20382;-55
2022/11/02 09:59:27;;;;;;;6.60;1.80;;;16.70;99.90;;;;;;7358367;19;20389;-55
2022/11/02 10:02:09;;;;;;;6.57;2.08;;;17.00;99.90;;;;;;7357385;19;20478;-54
2022/11/02 10:05:09;;;;;;;6.88;1.60;;;17.60;99.90;;;;;;7359260;19;20030;-55
2022/11/02 10:08:03;;;;;;;11.02;2.13;;;17.80;99.90;;;;;;7359461;19;20047;-61
2022/11/02 10:10:41;;;;;;;8.25;1.60;;;17.60;99.90;;;;;;7366997;19;20630;-62
2022/11/02 10:13:19;;;;;;;6.20;1.27;;;17.70;99.90;;;;;;7368023;19;20031;-62
2022/11/02 10:15:59;;;;;;;9.02;1.25;;;18.10;99.90;;;;;;7366641;19;20494;-56
2022/11/02 10:18:28;;;;;;;5.93;1.40;;;18.40;99.90;;;;;;7368083;19;20620;-58
2022/11/02 10:21:04;;;;;;;10.55;2.05;;;18.20;99.90;;;;;;7366061;19;20587;-56
2022/11/02 10:23:40;;;;;;;6.03;1.77;;;17.80;99.90;;;;;;7366610;19;20022;-56
2022/11/02 10:26:15;;;;;;;8.38;1.98;;;16.40;99.90;;;;;;7368458;19;20014;-56
2022/11/02 10:28:46;;;;;;;8.35;1.67;;;16.50;99.90;;;;;;7366969;19;20433;-55
2022/11/02 10:31:28;;;;;;;7.45;1.42;;;16.60;99.90;;;;;;7368723;19;20013;-55
2022/11/02 10:33:58;;;;;;;7.68;2.20;;;16.90;99.90;;;;;;7365778;19;20018;-56
2022/11/02 10:36:37;;;;;;;7.85;1.70;;;16.90;99.90;;;;;;7363968;19;20025;-55
2022/11/02 10:39:23;;;;;;;6.32;1.35;;;16.70;99.90;;;;;;7364922;19;20029;-57
2022/11/02 10:41:59;;;;;;;11.43;2.10;;;16.70;99.90;;;;;;7363407;19;20054;-56
2022/11/02 10:44:42;;;;;;;9.98;1.73;;;16.20;99.90;;;;;;7362507;19;20018;-57
2022/11/02 10:47:19;;;;;;;9.90;1.80;;;16.10;99.90;;;;;;7364002;19;20018;-55
2022/11/02 10:50:07;;;;;;;8.23;1.92;;;16.40;99.90;;;;;;7362820;19;20366;-56
2022/11/02 10:52:40;;;;;;;10.68;1.77;;;16.30;99.90;;;;;;7363939;19;20940;-56
2022/11/02 10:55:15;;;;;;;7.30;1.50;;;16.20;99.90;;;;;;7366099;19;20011;-57
2022/11/02 10:57:42;;;;;;;7.50;1.85;;;15.70;99.90;;;;;;7363567;19;20011;-57
2022/11/02 11:00:32;;;;;;;7.82;1.55;;;15.80;99.90;;;;;;7365054;19;20022;-57
2022/11/02 11:03:04;;;;;;;6.97;1.90;;;16.60;99.90;;;;;;7368373;19;20074;-58
2022/11/02 11:05:33;;;;;;;8.93;1.65;;;17.50;99.90;;;;;;7377450;19;20010;-57
2022/11/02 11:08:01;;;;;;;6.65;1.42;;;17.40;99.90;;;;;;7376949;19;20022;-57
2022/11/02 11:10:30;;;;;;;7.45;2.17;;;17.10;99.90;;;;;;7374481;19;20026;-57
2022/11/02 11:12:57;;;;;;;6.05;1.45;;;16.60;99.90;;;;;;7370692;19;20022;-57
2022/11/02 11:15:32;;;;;;;6.55;1.60;;;16.40;99.90;;;;;;7373060;19;20035;-58
2022/11/02 11:17:58;;;;;;;7.30;1.95;;;16.20;99.90;;;;;;7370465;19;20033;-57
2022/11/02 11:20:33;;;;;;;7.47;1.50;;;16.60;99.90;;;;;;7364186;19;20034;-58
2022/11/02 11:23:11;;;;;;;10.30;2.33;;;16.70;99.90;;;;;;7362279;19;20032;-58
2022/11/02 11:25:39;;;;;;;8.13;2.35;;;17.40;99.90;;;;;;7363405;19;20022;-56
2022/11/02 11:28:31;;;;;;;6.90;1.63;;;17.20;99.90;;;;;;7363018;19;20023;-57
2022/11/02 11:31:13;;;;;;;7.50;1.67;;;17.20;99.90;;;;;;7355927;19;20027;-57
2022/11/02 11:33:56;;;;;;;6.78;1.10;;;16.80;99.90;;;;;;7360562;19;20030;-57
2022/11/02 11:36:35;;;;;;;8.70;1.90;;;16.80;99.90;;;;;;7369060;19;20638;-57
2022/11/02 11:39:18;;;;;;;6.30;1.80;;;16.70;99.90;;;;;;7364609;19;20022;-57
2022/11/02 11:41:45;;;;;;;5.80;1.88;;;17.00;99.90;;;;;;7359687;19;20638;-58
2022/11/02 11:44:14;;;;;;;5.80;1.20;;;17.20;99.90;;;;;;7357042;19;20066;-57
2022/11/02 11:46:52;;;;;;;7.82;1.60;;;17.80;99.90;;;;;;7363962;19;20017;-57
2022/11/02 11:49:24;;;;;;;8.30;1.60;;;18.20;99.90;;;;;;7364292;19;20502;-58
2022/11/02 11:51:52;;;;;;;6.53;2.13;;;19.10;99.90;;;;;;7361841;19;20015;-57
2022/11/02 11:54:30;;;;;;;6.07;1.60;;;19.90;99.90;;;;;;7356611;19;20444;-57
2022/11/02 11:56:58;;;;;;;6.55;1.98;;;18.90;98.20;;;;;;7357777;19;20042;-58
2022/11/02 11:59:42;;;;;;;5.60;1.20;;;18.50;99.90;;;;;;7361040;19;20368;-58
2022/11/02 12:02:36;;;;;;;5.47;1.45;;;18.00;99.90;;;;;;7360763;19;20022;-57
2022/11/02 12:05:16;;;;;;;7.25;1.60;;;17.30;99.90;;;;;;7358780;19;20039;-57
2022/11/02 12:08:07;;;;;;;7.30;1.77;;;17.50;99.90;;;;;;7359630;19;20906;-57
2022/11/02 12:10:52;;;;;;;7.00;1.80;;;18.30;99.90;;;;;;7360979;19;20022;-58
2022/11/02 12:13:43;;;;;;;8.65;1.60;;;18.90;99.90;;;;;;7364130;19;20470;-58
2022/11/02 12:16:34;;;;;;;6.00;1.23;;;19.20;98.90;;;;;;7357604;19;20520;-58
2022/11/02 12:19:31;;;;;;;5.57;1.20;;;19.60;98.40;;;;;;7361670;19;20022;-58
2022/11/02 12:22:16;;;;;;;7.38;1.58;;;19.70;95.20;;;;;;7362260;19;20018;-58
2022/11/02 12:25:04;;;;;;;3.78;0.93;;;20.20;96.30;;;;;;7360371;19;20420;-58
2022/11/02 12:27:55;;;;;;;8.10;2.05;;;20.40;94.10;;;;;;7359942;19;20334;-57
2022/11/02 12:30:46;;;;;;;5.10;1.35;;;20.30;92.90;;;;;;7359664;19;20587;-59
2022/11/02 12:33:38;;;;;;;5.18;1.50;;;19.20;92.90;;;;;;7365668;19;20022;-56
2022/11/02 12:36:34;;;;;;;8.10;1.58;;;18.70;93.80;;;;;;7359999;19;20106;-57
2022/11/02 12:39:28;;;;;;;5.80;1.67;;;18.70;93.60;;;;;;7359193;19;20015;-57
2022/11/02 12:42:04;;;;;;;5.93;1.27;;;18.60;95.10;;;;;;7359056;19;20025;-58
2022/11/02 12:44:37;;;;;;;8.75;1.70;;;19.10;95.20;;;;;;7360506;19;20019;-57
2022/11/02 12:47:16;;;;;;;9.55;2.78;;;20.10;94.80;;;;;;7360077;19;20039;-57
2022/11/02 12:50:03;;;;;;;6.00;1.70;;;21.00;92.30;;;;;;7360089;19;21518;-58
2022/11/02 12:52:38;;;;;;;4.70;1.05;;;20.90;90.90;;;;;;7361837;19;20029;-56
2022/11/02 12:55:11;;;;;;;7.20;1.20;;;20.30;91.60;;;;;;7358479;19;20094;-60
2022/11/02 12:57:41;;;;;;;5.03;1.30;;;19.90;92.60;;;;;;7361051;19;20022;-60
2022/11/02 13:00:22;;;;;;;9.35;2.17;;;18.70;93.20;;;;;;7361418;19;20072;-61
2022/11/02 13:03:13;;;;;;;8.30;1.10;;;17.70;94.70;;;;;;7356841;19;20046;-60
2022/11/02 13:05:46;;;;;;;11.55;2.45;;;16.70;99.90;;;;;;7361716;19;20042;-60
2022/11/02 13:08:20;;;;;;;10.23;2.45;;;17.40;99.90;;;;;;7361622;19;20035;-60
2022/11/02 13:10:56;;;;;;;6.53;1.33;;;17.70;99.80;;;;;;7356987;19;20042;-60
2022/11/02 13:13:34;;;;;;;8.75;1.52;;;17.70;99.90;;;;;;7361166;19;20589;-60
2022/11/02 13:16:03;;;;;;;4.45;1.00;;;18.60;99.70;;;;;;7360117;19;20015;-60
2022/11/02 13:18:38;;;;;;;5.65;1.20;;;19.60;98.70;;;;;;7360481;19;20018;-61
2022/11/02 13:21:06;;;;;;;4.28;1.38;;;19.60;97.50;;;;;;7370345;19;20117;-59